createdAt,value
2023-05-13T00:04:03.593Z,1084.45
2023-05-13T00:14:06.342Z,1094.95
2023-05-13T00:24:07.821Z,1079.03
2023-05-13T00:34:09.237Z,1057.80
2023-05-13T00:44:11.453Z,1060.75
2023-05-13T00:54:14.087Z,1052.57
2023-05-13T01:04:37.325Z,1041.50
2023-05-13T01:14:45.541Z,1041.10
2023-05-13T01:24:46.996Z,1033.43
2023-05-13T01:34:48.385Z,1036.55
2023-05-13T01:44:51.288Z,1025.43
2023-05-13T01:54:52.680Z,1027.75
2023-05-13T02:04:54.070Z,1023.35
2023-05-13T02:14:55.537Z,1036.78
2023-05-13T02:24:57.251Z,1023.35
2023-05-13T02:34:58.638Z,1025.57
2023-05-13T02:45:00.048Z,1016.58
2023-05-13T02:55:02.148Z,1016.78
2023-05-13T03:05:03.882Z,1011.15
2023-05-13T03:15:05.541Z,1016.22
2023-05-13T03:25:07.270Z,1018.40
2023-05-13T03:35:08.744Z,1019.42
2023-05-13T03:45:10.461Z,1035.07
2023-05-13T03:55:11.851Z,1019.40
2023-05-13T04:05:14.108Z,1031.65
2023-05-13T04:15:15.637Z,1016.00
2023-05-13T04:25:17.011Z,990.45
2023-05-13T04:35:18.389Z,989.33
2023-05-13T04:45:20.192Z,999.58
2023-05-13T04:55:22.294Z,994.58
2023-05-13T05:05:24.182Z,1010.08
2023-05-13T05:15:25.615Z,1000.13
2023-05-13T05:25:27.010Z,1017.28
2023-05-13T05:35:28.399Z,1011.55
2023-05-13T05:45:29.806Z,1049.97
2023-05-13T05:55:34.296Z,1100.35
2023-05-13T06:05:36.135Z,1141.13
2023-05-13T06:15:40.707Z,1170.50
2023-05-13T06:25:42.168Z,1187.72
2023-05-13T06:35:48.084Z,1195.75
2023-05-13T06:45:49.467Z,1202.72
2023-05-13T06:55:51.106Z,1230.55
2023-05-13T07:05:53.628Z,1237.35
2023-05-13T07:15:55.018Z,1235.47
2023-05-13T07:25:56.411Z,1239.25
2023-05-13T07:35:57.856Z,1230.90
2023-05-13T07:45:59.250Z,1244.18
2023-05-13T07:56:00.645Z,1257.28
2023-05-13T08:06:02.018Z,1269.07
2023-05-13T08:16:03.540Z,1271.22
2023-05-13T08:26:04.970Z,1276.78
2023-05-13T08:36:06.807Z,1286.75
2023-05-13T08:46:09.649Z,1296.35
2023-05-13T08:56:11.752Z,1296.65
2023-05-13T09:06:13.144Z,1307.65
2023-05-13T09:16:15.107Z,1315.07
2023-05-13T09:26:29.339Z,1316.85
2023-05-13T09:36:30.710Z,1322.45
2023-05-13T09:46:33.181Z,1319.90
2023-05-13T09:56:35.260Z,1319.70
2023-05-13T10:06:36.702Z,1318.43
2023-05-13T10:16:38.552Z,1323.07
2023-05-13T10:26:41.505Z,1314.00
2023-05-13T10:37:10.641Z,1308.07
2023-05-13T10:47:12.243Z,1306.97
2023-05-13T10:57:13.634Z,1306.78
2023-05-13T11:07:16.451Z,1302.63
2023-05-13T11:17:19.230Z,1296.32
2023-05-13T11:27:20.767Z,1273.57
2023-05-13T11:37:22.139Z,1266.85
2023-05-13T11:47:29.408Z,1258.82
2023-05-13T11:57:33.997Z,1267.43
2023-05-13T12:07:35.630Z,1273.15
2023-05-13T12:17:37.153Z,1261.25
2023-05-13T12:27:38.548Z,1253.47
2023-05-13T12:37:39.984Z,1250.03
2023-05-13T12:47:51.065Z,1254.03
2023-05-13T12:58:02.961Z,1263.85
2023-05-13T13:08:07.240Z,1277.95
2023-05-13T13:18:09.157Z,1284.05
2023-05-13T13:28:11.087Z,1282.03
2023-05-13T13:38:12.842Z,1288.85
2023-05-13T13:48:14.303Z,1287.85
2023-05-13T13:58:15.777Z,1290.88
2023-05-13T14:08:17.235Z,1285.97
2023-05-13T14:18:18.686Z,1253.55
2023-05-13T14:28:20.118Z,1230.75
2023-05-13T14:38:21.506Z,1242.70
2023-05-13T14:48:22.911Z,1253.43
2023-05-13T14:58:24.347Z,1262.93
2023-05-13T15:08:25.759Z,1254.75
2023-05-13T15:18:27.166Z,1253.65
2023-05-13T15:28:29.044Z,1273.10
2023-05-13T15:38:30.493Z,1276.00
2023-05-13T15:48:31.905Z,1282.97
2023-05-13T15:58:33.418Z,1282.85
2023-05-13T16:08:34.858Z,1285.28
2023-05-13T16:18:36.250Z,1277.35
2023-05-13T16:28:37.821Z,1283.65
2023-05-13T16:38:41.167Z,1280.18
2023-05-13T16:48:42.587Z,1275.32
2023-05-13T16:58:43.997Z,1273.63
2023-05-13T17:08:45.429Z,1274.00
2023-05-13T17:18:46.863Z,1268.95
2023-05-13T17:28:48.879Z,1272.07
2023-05-13T17:38:50.429Z,1268.85
2023-05-13T17:48:52.064Z,1271.10
2023-05-13T17:58:53.566Z,1266.90
2023-05-13T18:08:55.007Z,1266.60
2023-05-13T18:18:56.384Z,1267.10
2023-05-13T18:28:57.864Z,1266.43
2023-05-13T18:38:59.296Z,1265.10
2023-05-13T18:49:00.708Z,1261.78
2023-05-13T18:59:02.146Z,1267.35
2023-05-13T19:09:03.656Z,1266.03
2023-05-13T19:19:05.262Z,1266.63
2023-05-13T19:29:06.700Z,1261.32
2023-05-13T19:39:08.145Z,1259.03
2023-05-13T19:49:09.531Z,1251.43
2023-05-13T19:59:10.941Z,1241.80
2023-05-13T20:09:12.482Z,1227.03
2023-05-13T20:19:13.981Z,1221.15
2023-05-13T20:29:16.073Z,1211.25
2023-05-13T20:39:17.459Z,1197.88
2023-05-13T20:49:18.873Z,1178.57
2023-05-13T20:59:20.345Z,1171.75
2023-05-13T21:09:21.768Z,1167.10
2023-05-13T21:19:23.655Z,1159.85
2023-05-13T21:29:25.154Z,1144.45
2023-05-13T21:39:26.649Z,1133.20
2023-05-13T21:49:28.035Z,1130.35
2023-05-13T21:59:29.435Z,1122.97
2023-05-13T22:09:31.124Z,1108.75
2023-05-13T22:19:34.393Z,1089.70
2023-05-13T22:29:35.864Z,1084.25
2023-05-13T22:39:37.547Z,1080.65
2023-05-13T22:49:38.919Z,1060.25
2023-05-13T22:59:40.302Z,1057.72
2023-05-13T23:09:41.941Z,1055.13
2023-05-13T23:19:43.470Z,1049.65
2023-05-13T23:29:44.875Z,1041.53
2023-05-13T23:39:46.269Z,1046.10
2023-05-13T23:49:47.823Z,1046.88
2023-05-13T23:59:49.371Z,1057.60
